ADDS METAR Data INFO
IDs: Format: Raw Decoded Include TAF

Data at: 0320 UTC 16 Dec 2017

KSBY 160254Z 29005KT 7SM BKN007 M02/M03 A3002 RMK AO2 SLP167 60000 T10221028 51027
KSBY 160242Z 28006KT 8SM BKN008 M03/M03 A3001 RMK AO2 T10281033
KSBY 160216Z 28004KT 9SM FEW008 SCT044 M02/M03 A3000 RMK AO2 T10221033
KSBY 160154Z 29004KT 9SM OVC040 M02/M03 A3000 RMK AO2 UPE12 SLP162 P0000 T10221028
KSBY 160139Z 30007KT 9SM FEW008 OVC036 M02/M03 A3000 RMK AO2 UPE12 P0000 T10221028
KSBY 160054Z 31005KT 7SM UP FEW008 OVC026 M02/M03 A2998 RMK AO2 SLP153 P0000 T10221028
KSBY 152354Z 34007KT 7SM UP FEW009 FEW018 OVC024 M03/M03 A2994 RMK AO2 UPE19B41FZRAB19E41 SLP141 P0001 60001 I1001 I6001 T10281033 10039 21028 51025
KSBY 152345Z 34008KT 6SM UP BR FEW009 OVC023 M03/M03 A2994 RMK AO2 UPE19B41FZRAB19E41 P0001 I1001 T10281033
KSBY 152325Z 34005KT 6SM -FZRA BR OVC022 M03/M03 A2993 RMK AO2 UPE19FZRAB19 P0001 I1001 T10281033
KSBY 152254Z 32012KT 5SM UP BR SCT013 OVC021 M03/M04 A2994 RMK AO2 UPB07E16B51SNE07B36E51 SLP141 P0000 T10281039
KSBY 152242Z 34011G21KT 3SM -SN BR BKN014 OVC019 M02/M04 A2993 RMK AO2 UPB07E16SNE07B36 P0000 T10221039
KSBY 152154Z 33013KT 9SM -SN BKN017 OVC024 M01/M03 A2989 RMK AO2 UPB26E37SNB46 SLP126 P0000 T10061033
KSBY 152054Z 34007KT 10SM OVC026 01/M02 A2987 RMK AO2 SLP116 T00111022 58004
KSBY 151954Z 35008KT 10SM OVC026 02/M02 A2987 RMK AO2 SLP118 T00221022
KSBY 151919Z 03007KT 10SM OVC028 03/M01 A2986 RMK AO2 T00281011
KSBY 151854Z 03006KT 10SM OVC031 04/M01 A2988 RMK AO2 SLP119 T00391011
KSBY 151817Z 02007KT 10SM BKN027 OVC070 03/M01 A2991 RMK AO2 T00331011
KSBY 151754Z 05009KT 10SM OVC070 03/M02 A2991 RMK AO2 SLP132 T00331017 10033 21022 58049
KSBY 151654Z 04008KT 10SM FEW046 OVC065 03/M03 A2997 RMK AO2 SLP150 T00281028
KSBY 151554Z 04005KT 10SM OVC070 02/M04 A3003 RMK AO2 SLP171 T00171044
KSBY 151454Z 06008KT 10SM OVC070 01/M05 A3006 RMK AO2 SLP182 T00061050 58015
KSBY 151354Z 05006KT 10SM OVC050 M01/M07 A3007 RMK AO2 SLP184 T10061072
KSBY 151254Z 04004KT 10SM OVC080 M02/M08 A3010 RMK AO2 SLP195 T10171083
KSBY 151154Z 04004KT 10SM OVC080 M02/M08 A3010 RMK AO2 SLP196 T10221083 11017 21039 56008
KSBY 151054Z 03004KT 10SM OVC080 M02/M09 A3011 RMK AO2 SLP200 T10221089
KSBY 150954Z AUTO 00000KT 10SM OVC085 M03/M09 A3011 RMK AO2 SLP198 T10281094
KSBY 150854Z AUTO 02004KT 10SM CLR M03/M10 A3013 RMK AO2 SLP204 T10281100 50004
KSBY 150754Z AUTO 01003KT 10SM CLR M03/M10 A3014 RMK AO2 SLP207 T10331100
KSBY 150654Z AUTO 01005KT 10SM CLR M02/M10 A3012 RMK AO2 SLP202 T10171100
KSBY 150554Z AUTO 35003KT 10SM CLR M02/M08 A3011 RMK AO2 SLP200 T10171078 11006 21033 50013
KSBY 150454Z AUTO 00000KT 10SM CLR M01/M09 A3013 RMK AO2 SLP205 T10111089 400781033
KSBY 150354Z AUTO 01003KT 10SM CLR M02/M08 A3010 RMK AO2 SLP195 T10171078
KSBY 150254Z 02004KT 10SM CLR M01/M07 A3008 RMK AO2 SLP187 T10111072 51013
KSBY 150154Z 35004KT 10SM CLR M01/M08 A3007 RMK AO2 SLP185 T10061078
KSBY 150054Z 34003KT 10SM CLR M02/M07 A3006 RMK AO2 SLP181 T10221072
KSBY 142354Z 00000KT 10SM CLR 00/M08 A3004 RMK AO2 SLP174 T00001078 10061 20000 51038
KSBY 142254Z 35007KT 10SM CLR 01/M08 A3001 RMK AO2 SLP164 T00111078
KSBY 142154Z 35005KT 10SM CLR 02/M07 A2997 RMK AO2 SLP151 T00171072
KSBY 142054Z 35013G18KT 10SM CLR 04/M07 A2993 RMK AO2 SLP136 T00391067 53036
KSBY 141954Z 34013G21KT 10SM CLR 05/M06 A2989 RMK AO2 PK WND 31026/1914 SLP123 T00501056
KSBY 141854Z 31018G22KT 10SM FEW042 05/M04 A2985 RMK AO2 PK WND 32028/1814 SLP110 T00501044
KSBY 141754Z 32020G27KT 10SM CLR 06/M03 A2982 RMK AO2 PK WND 31030/1704 SLP101 T00561028 10078 20033 51026
KSBY 141654Z 31021G31KT 10SM FEW049 07/M03 A2980 RMK AO2 PK WND 32031/1652 SLP095 T00721033
KSBY 141554Z 29015G25KT 10SM CLR 07/M04 A2977 RMK AO2 PK WND 29028/1531 SLP084 T00721039